sensor_id;sensor_type;location;lat;lon;timestamp;pressure;altitude;pressure_sealevel;temperature;humidity
54850;BME280;47660;51.334;12.396;2022-12-29T00:00:08;99414.06;;;10.48;100.00
54850;BME280;47660;51.334;12.396;2022-12-29T00:02:34;99409.16;;;10.19;100.00
54850;BME280;47660;51.334;12.396;2022-12-29T00:05:02;99404.75;;;10.43;100.00
54850;BME280;47660;51.334;12.396;2022-12-29T00:07:28;99403.28;;;10.27;100.00
54850;BME280;47660;51.334;12.396;2022-12-29T00:09:56;99395.25;;;10.51;100.00
54850;BME280;47660;51.334;12.396;2022-12-29T00:12:21;99396.78;;;10.54;100.00
54850;BME280;47660;51.334;12.396;2022-12-29T00:14:46;99398.59;;;10.42;100.00
54850;BME280;47660;51.334;12.396;2022-12-29T00:17:30;99391.47;;;10.77;100.00
54850;BME280;47660;51.334;12.396;2022-12-29T00:19:56;99392.44;;;10.64;100.00
54850;BME280;47660;51.334;12.396;2022-12-29T00:22:40;99391.09;;;10.70;99.67
54850;BME280;47660;51.334;12.396;2022-12-29T00:25:24;99388.34;;;10.49;100.00
54850;BME280;47660;51.334;12.396;2022-12-29T00:28:11;99390.50;;;10.66;100.00
54850;BME280;47660;51.334;12.396;2022-12-29T00:30:59;99398.97;;;10.72;100.00
54850;BME280;47660;51.334;12.396;2022-12-29T00:33:43;99389.91;;;10.63;100.00
54850;BME280;47660;51.334;12.396;2022-12-29T00:36:32;99376.84;;;10.71;100.00
54850;BME280;47660;51.334;12.396;2022-12-29T00:39:06;99382.06;;;11.17;98.67
54850;BME280;47660;51.334;12.396;2022-12-29T00:41:51;99378.69;;;10.70;100.00
54850;BME280;47660;51.334;12.396;2022-12-29T00:44:35;99383.53;;;11.09;98.80
54850;BME280;47660;51.334;12.396;2022-12-29T00:47:00;99383.81;;;11.06;99.26
54850;BME280;47660;51.334;12.396;2022-12-29T00:49:28;99381.69;;;10.77;100.00
54850;BME280;47660;51.334;12.396;2022-12-29T00:52:05;99370.78;;;10.92;100.00
54850;BME280;47660;51.334;12.396;2022-12-29T00:54:34;99372.56;;;11.47;98.14
54850;BME280;47660;51.334;12.396;2022-12-29T00:57:01;99372.81;;;11.43;98.34
54850;BME280;47660;51.334;12.396;2022-12-29T00:59:30;99377.31;;;10.99;99.20
54850;BME280;47660;51.334;12.396;2022-12-29T01:01:56;99384.06;;;11.36;98.08
54850;BME280;47660;51.334;12.396;2022-12-29T01:04:23;99377.19;;;11.33;98.90
54850;BME280;47660;51.334;12.396;2022-12-29T01:06:51;99372.25;;;11.82;96.57
54850;BME280;47660;51.334;12.396;2022-12-29T01:09:20;99376.56;;;11.62;96.73
54850;BME280;47660;51.334;12.396;2022-12-29T01:12:05;99382.84;;;11.40;97.91
54850;BME280;47660;51.334;12.396;2022-12-29T01:14:32;99378.97;;;11.44;97.93
54850;BME280;47660;51.334;12.396;2022-12-29T01:17:00;99377.03;;;11.88;96.75
54850;BME280;47660;51.334;12.396;2022-12-29T01:19:26;99385.66;;;11.38;98.91
54850;BME280;47660;51.334;12.396;2022-12-29T01:21:51;99380.03;;;11.53;98.39
54850;BME280;47660;51.334;12.396;2022-12-29T01:24:18;99385.13;;;11.77;97.25
54850;BME280;47660;51.334;12.396;2022-12-29T01:26:44;99379.25;;;11.62;97.75
54850;BME280;47660;51.334;12.396;2022-12-29T01:29:10;99377.19;;;11.87;96.42
54850;BME280;47660;51.334;12.396;2022-12-29T01:31:36;99374.97;;;11.71;97.75
54850;BME280;47660;51.334;12.396;2022-12-29T01:34:01;99372.88;;;11.53;98.44
54850;BME280;47660;51.334;12.396;2022-12-29T01:36:27;99369.19;;;11.66;98.38
54850;BME280;47660;51.334;12.396;2022-12-29T01:38:52;99375.69;;;11.52;99.70
54850;BME280;47660;51.334;12.396;2022-12-29T01:41:21;99381.03;;;11.73;99.83
54850;BME280;47660;51.334;12.396;2022-12-29T01:43:53;99375.09;;;11.69;100.00
54850;BME280;47660;51.334;12.396;2022-12-29T01:46:32;99384.72;;;11.28;100.00
54850;BME280;47660;51.334;12.396;2022-12-29T01:51:39;99386.09;;;11.76;100.00
54850;BME280;47660;51.334;12.396;2022-12-29T01:54:10;99386.72;;;11.89;100.00
54850;BME280;47660;51.334;12.396;2022-12-29T01:56:37;99378.81;;;11.78;100.00
54850;BME280;47660;51.334;12.396;2022-12-29T01:59:08;99388.41;;;11.69;100.00
54850;BME280;47660;51.334;12.396;2022-12-29T02:01:36;99378.81;;;11.78;100.00
54850;BME280;47660;51.334;12.396;2022-12-29T02:04:04;99381.66;;;11.86;100.00
54850;BME280;47660;51.334;12.396;2022-12-29T02:06:53;99382.38;;;11.88;100.00
54850;BME280;47660;51.334;12.396;2022-12-29T02:09:24;99385.88;;;11.68;100.00
54850;BME280;47660;51.334;12.396;2022-12-29T02:11:52;99380.81;;;11.86;100.00
54850;BME280;47660;51.334;12.396;2022-12-29T02:14:18;99380.63;;;11.99;100.00
54850;BME280;47660;51.334;12.396;2022-12-29T02:33:46;99355.19;;;12.06;100.00
54850;BME280;47660;51.334;12.396;2022-12-29T02:41:56;99347.75;;;11.88;100.00
54850;BME280;47660;51.334;12.396;2022-12-29T02:52:46;99319.88;;;12.14;100.00
54850;BME280;47660;51.334;12.396;2022-12-29T02:55:11;99326.66;;;11.97;100.00
54850;BME280;47660;51.334;12.396;2022-12-29T02:57:37;99328.75;;;11.93;100.00
54850;BME280;47660;51.334;12.396;2022-12-29T03:00:12;99317.44;;;12.01;100.00
54850;BME280;47660;51.334;12.396;2022-12-29T03:03:01;99307.72;;;11.69;100.00
54850;BME280;47660;51.334;12.396;2022-12-29T03:16:40;99283.13;;;12.08;100.00
54850;BME280;47660;51.334;12.396;2022-12-29T03:19:19;99278.53;;;11.88;100.00
54850;BME280;47660;51.334;12.396;2022-12-29T03:22:17;99282.75;;;11.91;100.00
54850;BME280;47660;51.334;12.396;2022-12-29T03:25:12;99285.41;;;12.12;100.00
54850;BME280;47660;51.334;12.396;2022-12-29T03:27:53;99290.00;;;12.00;100.00
54850;BME280;47660;51.334;12.396;2022-12-29T03:30:20;99300.16;;;11.95;100.00
54850;BME280;47660;51.334;12.396;2022-12-29T03:32:54;99295.91;;;12.14;100.00
54850;BME280;47660;51.334;12.396;2022-12-29T03:35:23;99297.13;;;11.79;100.00
54850;BME280;47660;51.334;12.396;2022-12-29T03:37:59;99307.97;;;11.87;100.00
54850;BME280;47660;51.334;12.396;2022-12-29T03:40:28;99321.81;;;12.02;100.00
54850;BME280;47660;51.334;12.396;2022-12-29T03:42:54;99325.19;;;12.04;100.00
54850;BME280;47660;51.334;12.396;2022-12-29T03:45:23;99329.53;;;11.63;100.00
54850;BME280;47660;51.334;12.396;2022-12-29T03:47:49;99326.22;;;11.70;100.00
54850;BME280;47660;51.334;12.396;2022-12-29T03:50:15;99323.94;;;12.08;100.00
54850;BME280;47660;51.334;12.396;2022-12-29T03:52:41;99324.88;;;11.55;100.00
54850;BME280;47660;51.334;12.396;2022-12-29T03:55:06;99332.13;;;11.74;100.00
54850;BME280;47660;51.334;12.396;2022-12-29T03:57:34;99335.44;;;11.66;100.00
54850;BME280;47660;51.334;12.396;2022-12-29T04:00:00;99339.91;;;11.66;100.00
54850;BME280;47660;51.334;12.396;2022-12-29T04:02:25;99341.09;;;11.73;100.00
54850;BME280;47660;51.334;12.396;2022-12-29T04:04:53;99350.09;;;11.82;100.00
54850;BME280;47660;51.334;12.396;2022-12-29T04:07:20;99342.94;;;11.61;100.00
54850;BME280;47660;51.334;12.396;2022-12-29T04:09:48;99352.78;;;11.61;100.00
54850;BME280;47660;51.334;12.396;2022-12-29T04:12:13;99350.88;;;11.94;100.00
54850;BME280;47660;51.334;12.396;2022-12-29T04:14:39;99350.69;;;12.28;100.00
54850;BME280;47660;51.334;12.396;2022-12-29T04:17:05;99357.44;;;11.89;100.00
54850;BME280;47660;51.334;12.396;2022-12-29T04:19:30;99352.09;;;11.89;100.00
54850;BME280;47660;51.334;12.396;2022-12-29T04:21:56;99342.44;;;12.10;100.00
54850;BME280;47660;51.334;12.396;2022-12-29T04:24:21;99336.31;;;11.98;100.00
54850;BME280;47660;51.334;12.396;2022-12-29T04:26:47;99327.50;;;12.18;100.00
54850;BME280;47660;51.334;12.396;2022-12-29T04:29:14;99334.00;;;12.04;100.00
54850;BME280;47660;51.334;12.396;2022-12-29T04:31:40;99328.56;;;12.06;100.00
54850;BME280;47660;51.334;12.396;2022-12-29T04:34:05;99322.16;;;12.18;100.00
54850;BME280;47660;51.334;12.396;2022-12-29T04:36:31;99323.91;;;12.29;100.00
54850;BME280;47660;51.334;12.396;2022-12-29T04:38:58;99318.34;;;12.11;100.00
54850;BME280;47660;51.334;12.396;2022-12-29T04:41:24;99315.75;;;12.31;100.00
54850;BME280;47660;51.334;12.396;2022-12-29T04:43:50;99312.22;;;12.21;100.00
54850;BME280;47660;51.334;12.396;2022-12-29T04:46:15;99298.53;;;12.35;100.00
54850;BME280;47660;51.334;12.396;2022-12-29T04:48:41;99306.19;;;11.97;100.00
54850;BME280;47660;51.334;12.396;2022-12-29T04:51:06;99306.84;;;12.42;100.00
54850;BME280;47660;51.334;12.396;2022-12-29T04:53:32;99296.34;;;12.09;100.00
54850;BME280;47660;51.334;12.396;2022-12-29T04:55:57;99301.78;;;12.08;100.00
54850;BME280;47660;51.334;12.396;2022-12-29T04:58:23;99283.94;;;12.39;100.00
54850;BME280;47660;51.334;12.396;2022-12-29T05:00:50;99295.63;;;12.07;100.00
54850;BME280;47660;51.334;12.396;2022-12-29T05:03:15;99289.72;;;12.44;100.00
54850;BME280;47660;51.334;12.396;2022-12-29T05:05:41;99286.06;;;12.45;100.00
54850;BME280;47660;51.334;12.396;2022-12-29T05:08:06;99275.69;;;12.42;100.00
54850;BME280;47660;51.334;12.396;2022-12-29T05:10:32;99274.09;;;12.30;100.00
54850;BME280;47660;51.334;12.396;2022-12-29T05:13:00;99268.31;;;12.15;100.00
54850;BME280;47660;51.334;12.396;2022-12-29T05:15:26;99273.50;;;12.16;100.00
54850;BME280;47660;51.334;12.396;2022-12-29T05:17:51;99268.63;;;12.22;100.00
54850;BME280;47660;51.334;12.396;2022-12-29T05:20:19;99270.69;;;12.18;100.00
54850;BME280;47660;51.334;12.396;2022-12-29T05:22:44;99267.75;;;12.11;100.00
54850;BME280;47660;51.334;12.396;2022-12-29T05:25:10;99272.38;;;11.88;100.00
54850;BME280;47660;51.334;12.396;2022-12-29T05:27:35;99261.28;;;11.83;100.00
54850;BME280;47660;51.334;12.396;2022-12-29T05:30:01;99257.81;;;12.23;100.00
54850;BME280;47660;51.334;12.396;2022-12-29T05:32:26;99257.69;;;11.94;100.00
54850;BME280;47660;51.334;12.396;2022-12-29T05:34:54;99273.06;;;12.11;100.00
54850;BME280;47660;51.334;12.396;2022-12-29T05:37:20;99264.84;;;12.24;100.00
54850;BME280;47660;51.334;12.396;2022-12-29T05:39:45;99270.44;;;11.90;100.00
54850;BME280;47660;51.334;12.396;2022-12-29T05:42:10;99274.03;;;11.79;100.00
54850;BME280;47660;51.334;12.396;2022-12-29T05:44:39;99270.41;;;12.11;100.00
54850;BME280;47660;51.334;12.396;2022-12-29T05:47:07;99269.91;;;11.96;100.00
54850;BME280;47660;51.334;12.396;2022-12-29T05:49:32;99277.97;;;12.16;100.00
54850;BME280;47660;51.334;12.396;2022-12-29T05:51:58;99264.94;;;12.13;100.00
54850;BME280;47660;51.334;12.396;2022-12-29T05:54:28;99274.53;;;12.25;100.00
54850;BME280;47660;51.334;12.396;2022-12-29T05:56:54;99262.44;;;11.90;100.00
54850;BME280;47660;51.334;12.396;2022-12-29T05:59:19;99267.00;;;11.99;100.00
54850;BME280;47660;51.334;12.396;2022-12-29T06:01:45;99260.19;;;12.16;100.00
54850;BME280;47660;51.334;12.396;2022-12-29T06:04:10;99257.03;;;11.80;100.00
54850;BME280;47660;51.334;12.396;2022-12-29T06:06:36;99259.44;;;11.83;100.00
54850;BME280;47660;51.334;12.396;2022-12-29T06:09:01;99256.69;;;11.95;100.00
54850;BME280;47660;51.334;12.396;2022-12-29T06:11:27;99255.94;;;11.83;100.00
54850;BME280;47660;51.334;12.396;2022-12-29T06:13:52;99259.47;;;12.14;100.00
54850;BME280;47660;51.334;12.396;2022-12-29T06:16:20;99264.94;;;12.13;100.00
54850;BME280;47660;51.334;12.396;2022-12-29T06:18:46;99257.09;;;12.11;100.00
54850;BME280;47660;51.334;12.396;2022-12-29T06:21:11;99269.28;;;12.14;100.00
54850;BME280;47660;51.334;12.396;2022-12-29T06:23:39;99254.53;;;12.10;100.00
54850;BME280;47660;51.334;12.396;2022-12-29T06:26:05;99256.47;;;12.39;100.00
54850;BME280;47660;51.334;12.396;2022-12-29T06:28:30;99260.13;;;12.07;100.00
54850;BME280;47660;51.334;12.396;2022-12-29T06:30:56;99259.44;;;12.04;100.00
54850;BME280;47660;51.334;12.396;2022-12-29T06:33:22;99268.19;;;12.16;100.00
54850;BME280;47660;51.334;12.396;2022-12-29T06:35:48;99260.50;;;11.92;100.00
54850;BME280;47660;51.334;12.396;2022-12-29T06:38:16;99271.22;;;12.43;100.00
54850;BME280;47660;51.334;12.396;2022-12-29T06:40:43;99269.69;;;12.09;100.00
54850;BME280;47660;51.334;12.396;2022-12-29T06:43:10;99266.59;;;12.04;100.00
54850;BME280;47660;51.334;12.396;2022-12-29T06:45:38;99272.00;;;12.24;100.00
54850;BME280;47660;51.334;12.396;2022-12-29T06:48:04;99263.38;;;12.00;100.00
54850;BME280;47660;51.334;12.396;2022-12-29T06:50:29;99265.59;;;11.74;100.00
54850;BME280;47660;51.334;12.396;2022-12-29T06:52:55;99262.38;;;11.80;100.00
54850;BME280;47660;51.334;12.396;2022-12-29T06:55:20;99264.25;;;11.89;100.00
54850;BME280;47660;51.334;12.396;2022-12-29T06:57:46;99272.41;;;11.98;100.00
54850;BME280;47660;51.334;12.396;2022-12-29T07:00:15;99274.44;;;12.06;100.00
54850;BME280;47660;51.334;12.396;2022-12-29T07:02:40;99274.09;;;11.68;100.00
54850;BME280;47660;51.334;12.396;2022-12-29T07:05:06;99255.59;;;11.97;100.00
54850;BME280;47660;51.334;12.396;2022-12-29T07:07:32;99254.53;;;11.79;100.00
54850;BME280;47660;51.334;12.396;2022-12-29T07:10:02;99255.81;;;11.84;100.00
54850;BME280;47660;51.334;12.396;2022-12-29T07:12:28;99256.19;;;11.70;100.00
54850;BME280;47660;51.334;12.396;2022-12-29T07:14:53;99254.69;;;11.77;100.00
54850;BME280;47660;51.334;12.396;2022-12-29T07:17:18;99257.59;;;11.74;100.00
54850;BME280;47660;51.334;12.396;2022-12-29T07:19:44;99260.41;;;11.51;100.00
54850;BME280;47660;51.334;12.396;2022-12-29T07:22:09;99256.00;;;11.93;100.00
54850;BME280;47660;51.334;12.396;2022-12-29T07:24:35;99256.34;;;11.99;100.00
54850;BME280;47660;51.334;12.396;2022-12-29T07:27:00;99247.28;;;11.91;100.00
54850;BME280;47660;51.334;12.396;2022-12-29T07:29:28;99244.91;;;11.87;100.00
54850;BME280;47660;51.334;12.396;2022-12-29T07:31:53;99247.38;;;12.00;100.00
54850;BME280;47660;51.334;12.396;2022-12-29T07:34:21;99246.81;;;11.76;100.00
54850;BME280;47660;51.334;12.396;2022-12-29T07:36:46;99247.00;;;11.84;100.00
54850;BME280;47660;51.334;12.396;2022-12-29T07:39:12;99255.38;;;11.79;100.00
54850;BME280;47660;51.334;12.396;2022-12-29T07:41:37;99258.47;;;11.32;100.00
54850;BME280;47660;51.334;12.396;2022-12-29T07:44:03;99257.44;;;11.76;100.00
54850;BME280;47660;51.334;12.396;2022-12-29T07:46:28;99251.53;;;11.93;100.00
54850;BME280;47660;51.334;12.396;2022-12-29T07:48:54;99267.13;;;11.77;100.00
54850;BME280;47660;51.334;12.396;2022-12-29T07:51:21;99254.41;;;12.01;100.00
54850;BME280;47660;51.334;12.396;2022-12-29T07:53:47;99258.56;;;11.73;100.00
54850;BME280;47660;51.334;12.396;2022-12-29T07:56:12;99253.16;;;11.84;100.00
54850;BME280;47660;51.334;12.396;2022-12-29T07:58:40;99257.00;;;11.70;100.00
54850;BME280;47660;51.334;12.396;2022-12-29T08:01:06;99271.75;;;11.74;100.00
54850;BME280;47660;51.334;12.396;2022-12-29T08:03:34;99277.41;;;12.12;100.00
54850;BME280;47660;51.334;12.396;2022-12-29T08:06:05;99280.56;;;11.96;100.00
54850;BME280;47660;51.334;12.396;2022-12-29T08:08:30;99280.19;;;12.11;100.00
54850;BME280;47660;51.334;12.396;2022-12-29T08:10:56;99283.69;;;12.01;100.00
54850;BME280;47660;51.334;12.396;2022-12-29T08:13:21;99288.16;;;12.01;100.00
54850;BME280;47660;51.334;12.396;2022-12-29T08:15:47;99288.81;;;11.93;100.00
54850;BME280;47660;51.334;12.396;2022-12-29T08:18:14;99287.06;;;12.03;100.00
54850;BME280;47660;51.334;12.396;2022-12-29T08:20:40;99287.69;;;11.96;100.00
54850;BME280;47660;51.334;12.396;2022-12-29T08:23:05;99279.41;;;12.20;100.00
54850;BME280;47660;51.334;12.396;2022-12-29T08:25:31;99272.28;;;12.21;100.00
54850;BME280;47660;51.334;12.396;2022-12-29T08:27:56;99274.31;;;12.07;100.00
54850;BME280;47660;51.334;12.396;2022-12-29T08:30:22;99287.81;;;11.94;100.00
54850;BME280;47660;51.334;12.396;2022-12-29T08:32:47;99285.69;;;12.09;100.00
54850;BME280;47660;51.334;12.396;2022-12-29T08:35:12;99279.13;;;11.92;100.00
54850;BME280;47660;51.334;12.396;2022-12-29T08:37:38;99289.31;;;12.08;100.00
54850;BME280;47660;51.334;12.396;2022-12-29T08:40:06;99290.25;;;12.38;100.00
54850;BME280;47660;51.334;12.396;2022-12-29T08:42:32;99285.69;;;12.09;100.00
54850;BME280;47660;51.334;12.396;2022-12-29T08:44:58;99282.78;;;12.22;100.00
54850;BME280;47660;51.334;12.396;2022-12-29T08:47:25;99283.41;;;12.04;100.00
54850;BME280;47660;51.334;12.396;2022-12-29T08:49:50;99276.81;;;12.40;100.00
54850;BME280;47660;51.334;12.396;2022-12-29T08:52:17;99285.38;;;12.02;100.00
54850;BME280;47660;51.334;12.396;2022-12-29T08:54:44;99278.31;;;12.23;100.00
54850;BME280;47660;51.334;12.396;2022-12-29T08:57:12;99277.34;;;12.33;100.00
54850;BME280;47660;51.334;12.396;2022-12-29T08:59:38;99274.03;;;12.51;100.00
54850;BME280;47660;51.334;12.396;2022-12-29T09:02:08;99269.81;;;12.48;100.00
54850;BME280;47660;51.334;12.396;2022-12-29T09:04:37;99270.53;;;12.51;100.00
54850;BME280;47660;51.334;12.396;2022-12-29T09:07:05;99261.28;;;12.55;100.00
54850;BME280;47660;51.334;12.396;2022-12-29T09:09:33;99261.59;;;12.81;100.00
54850;BME280;47660;51.334;12.396;2022-12-29T09:12:01;99274.38;;;13.07;100.00
54850;BME280;47660;51.334;12.396;2022-12-29T09:14:29;99273.50;;;12.67;100.00
54850;BME280;47660;51.334;12.396;2022-12-29T09:16:54;99283.72;;;12.52;100.00
54850;BME280;47660;51.334;12.396;2022-12-29T09:19:41;99279.38;;;12.61;100.00
54850;BME280;47660;51.334;12.396;2022-12-29T09:22:06;99290.13;;;13.20;100.00
54850;BME280;47660;51.334;12.396;2022-12-29T09:24:32;99278.69;;;12.69;100.00
54850;BME280;47660;51.334;12.396;2022-12-29T09:26:59;99291.09;;;12.99;100.00
54850;BME280;47660;51.334;12.396;2022-12-29T09:29:27;99276.06;;;12.98;100.00
54850;BME280;47660;51.334;12.396;2022-12-29T09:31:55;99277.47;;;13.32;100.00
54850;BME280;47660;51.334;12.396;2022-12-29T09:34:21;99282.09;;;13.40;100.00
54850;BME280;47660;51.334;12.396;2022-12-29T09:36:48;99269.59;;;13.30;100.00
54850;BME280;47660;51.334;12.396;2022-12-29T09:39:14;99270.16;;;13.04;100.00
54850;BME280;47660;51.334;12.396;2022-12-29T09:44:23;99268.28;;;13.74;100.00
54850;BME280;47660;51.334;12.396;2022-12-29T09:46:53;99272.28;;;13.50;100.00
54850;BME280;47660;51.334;12.396;2022-12-29T09:52:22;99261.78;;;13.86;100.00
54850;BME280;47660;51.334;12.396;2022-12-29T09:57:33;99247.25;;;13.51;100.00
54850;BME280;47660;51.334;12.396;2022-12-29T10:00:23;99228.91;;;13.76;100.00
54850;BME280;47660;51.334;12.396;2022-12-29T10:02:53;99242.59;;;13.73;100.00
54850;BME280;47660;51.334;12.396;2022-12-29T10:08:11;99221.63;;;14.06;100.00
54850;BME280;47660;51.334;12.396;2022-12-29T10:15:59;99225.66;;;13.92;100.00
54850;BME280;47660;51.334;12.396;2022-12-29T10:21:05;99230.94;;;13.64;100.00
54850;BME280;47660;51.334;12.396;2022-12-29T10:23:50;99235.09;;;13.76;100.00
54850;BME280;47660;51.334;12.396;2022-12-29T10:26:27;99226.03;;;13.59;100.00
54850;BME280;47660;51.334;12.396;2022-12-29T10:29:11;99219.13;;;13.57;100.00
54850;BME280;47660;51.334;12.396;2022-12-29T10:31:44;99218.59;;;13.53;100.00
54850;BME280;47660;51.334;12.396;2022-12-29T10:36:47;99214.50;;;13.59;100.00
54850;BME280;47660;51.334;12.396;2022-12-29T10:39:30;99226.97;;;13.68;100.00
54850;BME280;47660;51.334;12.396;2022-12-29T10:42:20;99208.75;;;13.91;100.00
54850;BME280;47660;51.334;12.396;2022-12-29T10:44:48;99217.84;;;13.71;100.00
54850;BME280;47660;51.334;12.396;2022-12-29T10:47:17;99225.59;;;13.64;100.00
54850;BME280;47660;51.334;12.396;2022-12-29T10:49:45;99222.22;;;14.27;100.00
54850;BME280;47660;51.334;12.396;2022-12-29T10:52:13;99228.03;;;13.95;100.00
54850;BME280;47660;51.334;12.396;2022-12-29T10:54:54;99232.22;;;13.98;100.00
54850;BME280;47660;51.334;12.396;2022-12-29T10:57:26;99214.84;;;13.84;100.00
54850;BME280;47660;51.334;12.396;2022-12-29T10:59:52;99228.75;;;13.87;100.00
54850;BME280;47660;51.334;12.396;2022-12-29T11:02:58;99231.84;;;14.20;100.00
54850;BME280;47660;51.334;12.396;2022-12-29T11:08:03;99226.50;;;14.20;100.00
54850;BME280;47660;51.334;12.396;2022-12-29T11:13:11;99222.38;;;14.72;99.88
54850;BME280;47660;51.334;12.396;2022-12-29T11:15:47;99234.09;;;14.61;100.00
54850;BME280;47660;51.334;12.396;2022-12-29T11:20:59;99234.63;;;14.75;98.96
54850;BME280;47660;51.334;12.396;2022-12-29T11:23:35;99223.19;;;14.54;100.00
54850;BME280;47660;51.334;12.396;2022-12-29T11:28:40;99215.78;;;15.03;97.52
54850;BME280;47660;51.334;12.396;2022-12-29T11:31:07;99206.69;;;14.95;96.62
54850;BME280;47660;51.334;12.396;2022-12-29T11:33:38;99217.38;;;14.59;99.15
54850;BME280;47660;51.334;12.396;2022-12-29T11:36:15;99212.38;;;14.74;98.79
54850;BME280;47660;51.334;12.396;2022-12-29T11:38:46;99213.53;;;14.72;98.97
54850;BME280;47660;51.334;12.396;2022-12-29T11:41:20;99216.38;;;14.42;100.00
54850;BME280;47660;51.334;12.396;2022-12-29T11:43:46;99225.38;;;14.69;98.74
54850;BME280;47660;51.334;12.396;2022-12-29T11:46:19;99221.63;;;14.80;97.64
54850;BME280;47660;51.334;12.396;2022-12-29T11:48:46;99234.44;;;14.94;96.39
54850;BME280;47660;51.334;12.396;2022-12-29T11:51:26;99230.25;;;15.10;95.94
54850;BME280;47660;51.334;12.396;2022-12-29T11:53:58;99226.28;;;14.96;96.80
54850;BME280;47660;51.334;12.396;2022-12-29T11:56:35;99218.09;;;14.97;97.20
54850;BME280;47660;51.334;12.396;2022-12-29T12:02:19;99209.69;;;15.10;96.83
54850;BME280;47660;51.334;12.396;2022-12-29T12:04:56;99214.19;;;15.10;97.06
54850;BME280;47660;51.334;12.396;2022-12-29T12:07:38;99217.88;;;15.35;95.11
54850;BME280;47660;51.334;12.396;2022-12-29T12:10:05;99227.41;;;15.29;95.70
54850;BME280;47660;51.334;12.396;2022-12-29T12:12:37;99224.81;;;15.02;96.63
54850;BME280;47660;51.334;12.396;2022-12-29T12:15:13;99215.56;;;15.14;97.02
54850;BME280;47660;51.334;12.396;2022-12-29T12:17:49;99234.22;;;14.88;96.86
54850;BME280;47660;51.334;12.396;2022-12-29T12:20:36;99220.97;;;15.22;96.05
54850;BME280;47660;51.334;12.396;2022-12-29T12:25:40;99218.00;;;15.25;96.18
54850;BME280;47660;51.334;12.396;2022-12-29T12:30:49;99211.91;;;15.41;95.03
54850;BME280;47660;51.334;12.396;2022-12-29T12:35:53;99218.72;;;15.09;96.24
54850;BME280;47660;51.334;12.396;2022-12-29T12:41:19;99213.09;;;15.47;94.43
54850;BME280;47660;51.334;12.396;2022-12-29T12:51:49;99208.44;;;15.05;96.86
54850;BME280;47660;51.334;12.396;2022-12-29T13:00:09;99221.44;;;15.18;96.01
54850;BME280;47660;51.334;12.396;2022-12-29T13:02:51;99219.44;;;14.65;98.51
54850;BME280;47660;51.334;12.396;2022-12-29T13:05:42;99230.03;;;14.85;96.89
54850;BME280;47660;51.334;12.396;2022-12-29T13:14:11;99227.78;;;14.62;97.81
54850;BME280;47660;51.334;12.396;2022-12-29T13:17:02;99232.03;;;14.83;97.50
54850;BME280;47660;51.334;12.396;2022-12-29T13:38:21;99258.84;;;14.45;100.00
54850;BME280;47660;51.334;12.396;2022-12-29T13:40:52;99259.72;;;14.64;100.00
54850;BME280;47660;51.334;12.396;2022-12-29T13:43:20;99247.34;;;14.63;99.92
54850;BME280;47660;51.334;12.396;2022-12-29T13:45:57;99261.38;;;14.19;100.00
54850;BME280;47660;51.334;12.396;2022-12-29T13:51:08;99267.47;;;14.01;100.00
54850;BME280;47660;51.334;12.396;2022-12-29T13:56:59;99247.94;;;14.01;100.00
54850;BME280;47660;51.334;12.396;2022-12-29T14:02:21;99274.22;;;14.05;100.00
54850;BME280;47660;51.334;12.396;2022-12-29T14:04:58;99298.47;;;13.94;100.00
54850;BME280;47660;51.334;12.396;2022-12-29T14:07:24;99284.91;;;14.05;100.00
54850;BME280;47660;51.334;12.396;2022-12-29T14:09:55;99276.88;;;14.15;100.00
54850;BME280;47660;51.334;12.396;2022-12-29T14:17:39;99301.84;;;13.86;100.00
54850;BME280;47660;51.334;12.396;2022-12-29T14:20:16;99311.31;;;13.71;100.00
54850;BME280;47660;51.334;12.396;2022-12-29T14:23:15;99301.44;;;13.81;100.00
54850;BME280;47660;51.334;12.396;2022-12-29T14:28:39;99309.84;;;13.96;100.00
54850;BME280;47660;51.334;12.396;2022-12-29T14:33:41;99307.66;;;13.72;100.00
54850;BME280;47660;51.334;12.396;2022-12-29T14:42:00;99318.72;;;13.87;100.00
54850;BME280;47660;51.334;12.396;2022-12-29T14:44:28;99326.91;;;13.65;100.00
54850;BME280;47660;51.334;12.396;2022-12-29T14:49:25;99336.34;;;13.70;100.00
54850;BME280;47660;51.334;12.396;2022-12-29T14:51:53;99333.25;;;13.64;100.00
54850;BME280;47660;51.334;12.396;2022-12-29T14:54:43;99334.75;;;13.77;100.00
54850;BME280;47660;51.334;12.396;2022-12-29T14:57:39;99334.50;;;13.70;100.00
54850;BME280;47660;51.334;12.396;2022-12-29T15:00:17;99349.94;;;13.57;100.00
54850;BME280;47660;51.334;12.396;2022-12-29T15:05:50;99348.56;;;13.62;100.00
54850;BME280;47660;51.334;12.396;2022-12-29T15:08:19;99353.75;;;13.54;100.00
54850;BME280;47660;51.334;12.396;2022-12-29T15:10:51;99345.88;;;13.72;100.00
54850;BME280;47660;51.334;12.396;2022-12-29T15:13:23;99355.00;;;13.79;100.00
54850;BME280;47660;51.334;12.396;2022-12-29T15:15:50;99367.09;;;13.54;100.00
54850;BME280;47660;51.334;12.396;2022-12-29T15:18:26;99367.94;;;13.45;100.00
54850;BME280;47660;51.334;12.396;2022-12-29T15:21:00;99367.91;;;13.35;100.00
54850;BME280;47660;51.334;12.396;2022-12-29T15:23:26;99363.69;;;13.22;100.00
54850;BME280;47660;51.334;12.396;2022-12-29T15:25:59;99364.16;;;13.47;100.00
54850;BME280;47660;51.334;12.396;2022-12-29T15:28:26;99369.56;;;13.26;100.00
54850;BME280;47660;51.334;12.396;2022-12-29T15:30:56;99375.75;;;13.07;100.00
54850;BME280;47660;51.334;12.396;2022-12-29T15:33:24;99383.47;;;13.00;100.00
54850;BME280;47660;51.334;12.396;2022-12-29T15:35:53;99382.69;;;12.78;100.00